sensor_id;sensor_type;location;lat;lon;timestamp;temperature;humidity
6930;DHT22;3504;52.616;13.238;2022-11-22T00:03:18;-1.33;86.64
6930;DHT22;3504;52.616;13.238;2022-11-22T00:08:19;-1.30;86.63
6930;DHT22;3504;52.616;13.238;2022-11-22T00:13:20;-1.34;87.08
6930;DHT22;3504;52.616;13.238;2022-11-22T00:18:20;-1.30;86.93
6930;DHT22;3504;52.616;13.238;2022-11-22T00:23:22;-1.26;86.84
6930;DHT22;3504;52.616;13.238;2022-11-22T00:28:22;-1.31;86.86
6930;DHT22;3504;52.616;13.238;2022-11-22T00:33:23;-1.26;86.67
6930;DHT22;3504;52.616;13.238;2022-11-22T00:38:23;-1.30;86.36
6930;DHT22;3504;52.616;13.238;2022-11-22T00:43:24;-1.31;86.21
6930;DHT22;3504;52.616;13.238;2022-11-22T00:48:25;-1.36;86.21
6930;DHT22;3504;52.616;13.238;2022-11-22T00:53:25;-1.37;86.55
6930;DHT22;3504;52.616;13.238;2022-11-22T00:58:26;-1.30;86.53
6930;DHT22;3504;52.616;13.238;2022-11-22T01:03:27;-1.30;86.50
6930;DHT22;3504;52.616;13.238;2022-11-22T01:08:28;-1.30;86.62
6930;DHT22;3504;52.616;13.238;2022-11-22T01:13:28;-1.33;86.72
6930;DHT22;3504;52.616;13.238;2022-11-22T01:18:29;-1.27;86.44
6930;DHT22;3504;52.616;13.238;2022-11-22T01:23:30;-1.29;86.49
6930;DHT22;3504;52.616;13.238;2022-11-22T01:28:30;-1.30;86.62
6930;DHT22;3504;52.616;13.238;2022-11-22T01:33:31;-1.30;86.45
6930;DHT22;3504;52.616;13.238;2022-11-22T01:38:31;-1.36;86.58
6930;DHT22;3504;52.616;13.238;2022-11-22T01:43:32;-1.33;86.38
6930;DHT22;3504;52.616;13.238;2022-11-22T01:48:50;-1.38;86.56
6930;DHT22;3504;52.616;13.238;2022-11-22T01:53:54;-1.40;86.42
6930;DHT22;3504;52.616;13.238;2022-11-22T01:59:00;-1.38;86.51
6930;DHT22;3504;52.616;13.238;2022-11-22T02:04:03;-1.44;86.39
6930;DHT22;3504;52.616;13.238;2022-11-22T02:09:11;-1.40;86.61
6930;DHT22;3504;52.616;13.238;2022-11-22T02:14:12;-1.40;86.61
6930;DHT22;3504;52.616;13.238;2022-11-22T02:24:40;-1.36;86.46
6930;DHT22;3504;52.616;13.238;2022-11-22T02:29:41;-1.30;86.25
6930;DHT22;3504;52.616;13.238;2022-11-22T02:34:50;-1.34;86.22
6930;DHT22;3504;52.616;13.238;2022-11-22T02:39:57;-1.46;86.66
6930;DHT22;3504;52.616;13.238;2022-11-22T02:44:59;-1.41;86.32
6930;DHT22;3504;52.616;13.238;2022-11-22T02:50:00;-1.44;86.56
6930;DHT22;3504;52.616;13.238;2022-11-22T02:55:00;-1.37;86.55
6930;DHT22;3504;52.616;13.238;2022-11-22T03:00:01;-1.36;86.40
6930;DHT22;3504;52.616;13.238;2022-11-22T03:05:01;-1.34;86.75
6930;DHT22;3504;52.616;13.238;2022-11-22T03:10:02;-1.29;86.82
6930;DHT22;3504;52.616;13.238;2022-11-22T03:15:03;-1.26;86.37
6930;DHT22;3504;52.616;13.238;2022-11-22T03:20:04;-1.33;86.81
6930;DHT22;3504;52.616;13.238;2022-11-22T03:25:05;-1.36;86.57
6930;DHT22;3504;52.616;13.238;2022-11-22T03:30:06;-1.38;86.65
6930;DHT22;3504;52.616;13.238;2022-11-22T03:35:07;-1.38;86.29
6930;DHT22;3504;52.616;13.238;2022-11-22T03:40:08;-1.34;86.53
6930;DHT22;3504;52.616;13.238;2022-11-22T03:45:09;-1.33;86.27
6930;DHT22;3504;52.616;13.238;2022-11-22T03:50:10;-1.44;86.82
6930;DHT22;3504;52.616;13.238;2022-11-22T03:55:10;-1.40;86.64
6930;DHT22;3504;52.616;13.238;2022-11-22T04:00:11;-1.50;86.70
6930;DHT22;3504;52.616;13.238;2022-11-22T04:05:17;-1.47;86.89
6930;DHT22;3504;52.616;13.238;2022-11-22T04:10:18;-1.46;86.63
6930;DHT22;3504;52.616;13.238;2022-11-22T04:15:18;-1.51;87.19
6930;DHT22;3504;52.616;13.238;2022-11-22T04:20:25;-1.48;86.95
6930;DHT22;3504;52.616;13.238;2022-11-22T04:25:50;-1.52;87.02
6930;DHT22;3504;52.616;13.238;2022-11-22T04:30:51;-1.52;87.25
6930;DHT22;3504;52.616;13.238;2022-11-22T04:36:10;-1.51;87.33
6930;DHT22;3504;52.616;13.238;2022-11-22T04:41:10;-1.52;87.31
6930;DHT22;3504;52.616;13.238;2022-11-22T04:46:13;-1.52;87.35
6930;DHT22;3504;52.616;13.238;2022-11-22T04:51:14;-1.48;87.56
6930;DHT22;3504;52.616;13.238;2022-11-22T04:56:33;-1.48;87.38
6930;DHT22;3504;52.616;13.238;2022-11-22T05:01:34;-1.50;88.01
6930;DHT22;3504;52.616;13.238;2022-11-22T05:06:35;-1.43;87.93
6930;DHT22;3504;52.616;13.238;2022-11-22T05:11:36;-1.37;87.92
6930;DHT22;3504;52.616;13.238;2022-11-22T05:16:37;-1.41;88.15
6930;DHT22;3504;52.616;13.238;2022-11-22T05:21:37;-1.40;88.57
6930;DHT22;3504;52.616;13.238;2022-11-22T05:26:38;-1.36;88.73
6930;DHT22;3504;52.616;13.238;2022-11-22T05:31:39;-1.30;88.73
6930;DHT22;3504;52.616;13.238;2022-11-22T05:36:39;-1.24;88.57
6930;DHT22;3504;52.616;13.238;2022-11-22T05:41:40;-1.23;88.64
6930;DHT22;3504;52.616;13.238;2022-11-22T05:46:55;-1.21;88.85
6930;DHT22;3504;52.616;13.238;2022-11-22T05:51:55;-1.19;88.77
6930;DHT22;3504;52.616;13.238;2022-11-22T05:56:56;-1.17;88.81
6930;DHT22;3504;52.616;13.238;2022-11-22T06:01:56;-1.10;88.88
6930;DHT22;3504;52.616;13.238;2022-11-22T06:06:57;-1.10;88.91
6930;DHT22;3504;52.616;13.238;2022-11-22T06:11:57;-1.06;88.90
6930;DHT22;3504;52.616;13.238;2022-11-22T06:16:58;-1.03;88.87
6930;DHT22;3504;52.616;13.238;2022-11-22T06:21:58;-0.97;88.85
6930;DHT22;3504;52.616;13.238;2022-11-22T06:26:59;-0.96;88.92
6930;DHT22;3504;52.616;13.238;2022-11-22T06:31:59;-0.90;88.91
6930;DHT22;3504;52.616;13.238;2022-11-22T06:37:00;-0.90;88.72
6930;DHT22;3504;52.616;13.238;2022-11-22T06:42:01;-0.87;88.57
6930;DHT22;3504;52.616;13.238;2022-11-22T06:47:01;-0.86;88.81
6930;DHT22;3504;52.616;13.238;2022-11-22T06:52:02;-0.87;88.90
6930;DHT22;3504;52.616;13.238;2022-11-22T06:57:02;-0.83;88.77
6930;DHT22;3504;52.616;13.238;2022-11-22T07:02:03;-0.86;88.95
6930;DHT22;3504;52.616;13.238;2022-11-22T07:07:03;-0.80;88.77
6930;DHT22;3504;52.616;13.238;2022-11-22T07:12:04;-0.76;88.56
6930;DHT22;3504;52.616;13.238;2022-11-22T07:17:04;-0.75;88.85
6930;DHT22;3504;52.616;13.238;2022-11-22T07:22:05;-0.72;88.55
6930;DHT22;3504;52.616;13.238;2022-11-22T07:27:06;-0.65;88.53
6930;DHT22;3504;52.616;13.238;2022-11-22T07:32:06;-0.65;88.68
6930;DHT22;3504;52.616;13.238;2022-11-22T07:37:07;-0.62;88.61
6930;DHT22;3504;52.616;13.238;2022-11-22T07:42:07;-0.52;88.44
6930;DHT22;3504;52.616;13.238;2022-11-22T07:47:08;-0.51;88.42
6930;DHT22;3504;52.616;13.238;2022-11-22T07:52:09;-0.41;88.31
6930;DHT22;3504;52.616;13.238;2022-11-22T07:57:09;-0.41;88.13
6930;DHT22;3504;52.616;13.238;2022-11-22T08:02:11;-0.41;88.29
6930;DHT22;3504;52.616;13.238;2022-11-22T08:07:11;-0.28;88.41
6930;DHT22;3504;52.616;13.238;2022-11-22T08:12:12;-0.24;88.02
6930;DHT22;3504;52.616;13.238;2022-11-22T08:17:12;-0.23;87.81
6930;DHT22;3504;52.616;13.238;2022-11-22T08:22:13;-0.15;87.95
6930;DHT22;3504;52.616;13.238;2022-11-22T08:27:13;-0.07;87.75
6930;DHT22;3504;52.616;13.238;2022-11-22T08:32:14;-0.10;87.46
6930;DHT22;3504;52.616;13.238;2022-11-22T08:37:15;0.01;87.76
6930;DHT22;3504;52.616;13.238;2022-11-22T08:42:15;0.06;87.33
6930;DHT22;3504;52.616;13.238;2022-11-22T08:47:16;0.09;87.48
6930;DHT22;3504;52.616;13.238;2022-11-22T08:52:16;0.13;87.39
6930;DHT22;3504;52.616;13.238;2022-11-22T08:57:17;0.14;87.17
6930;DHT22;3504;52.616;13.238;2022-11-22T09:02:17;0.27;87.29
6930;DHT22;3504;52.616;13.238;2022-11-22T09:07:18;0.30;87.00
6930;DHT22;3504;52.616;13.238;2022-11-22T09:12:18;0.38;87.11
6930;DHT22;3504;52.616;13.238;2022-11-22T09:17:21;0.49;86.93
6930;DHT22;3504;52.616;13.238;2022-11-22T09:22:22;0.48;86.91
6930;DHT22;3504;52.616;13.238;2022-11-22T09:27:22;0.47;86.99
6930;DHT22;3504;52.616;13.238;2022-11-22T09:32:23;0.44;87.34
6930;DHT22;3504;52.616;13.238;2022-11-22T09:37:24;0.48;87.37
6930;DHT22;3504;52.616;13.238;2022-11-22T09:48:23;0.62;86.85
6930;DHT22;3504;52.616;13.238;2022-11-22T09:53:55;0.69;87.03
6930;DHT22;3504;52.616;13.238;2022-11-22T10:04:20;0.86;86.80
6930;DHT22;3504;52.616;13.238;2022-11-22T10:09:38;0.95;86.73
6930;DHT22;3504;52.616;13.238;2022-11-22T10:14:51;0.95;87.01
6930;DHT22;3504;52.616;13.238;2022-11-22T10:20:20;0.93;86.58
6930;DHT22;3504;52.616;13.238;2022-11-22T10:25:29;0.95;87.08
6930;DHT22;3504;52.616;13.238;2022-11-22T10:30:40;1.04;86.87
6930;DHT22;3504;52.616;13.238;2022-11-22T10:36:14;1.06;87.12
6930;DHT22;3504;52.616;13.238;2022-11-22T10:52:32;1.27;86.79
6930;DHT22;3504;52.616;13.238;2022-11-22T10:58:07;1.23;86.82
6930;DHT22;3504;52.616;13.238;2022-11-22T11:03:38;1.26;87.08
6930;DHT22;3504;52.616;13.238;2022-11-22T11:08:44;1.34;87.15
6930;DHT22;3504;52.616;13.238;2022-11-22T11:13:51;1.34;87.47
6930;DHT22;3504;52.616;13.238;2022-11-22T11:19:16;1.47;87.08
6930;DHT22;3504;52.616;13.238;2022-11-22T11:24:17;1.52;86.99
6930;DHT22;3504;52.616;13.238;2022-11-22T11:29:23;1.52;87.05
6930;DHT22;3504;52.616;13.238;2022-11-22T11:34:27;1.54;87.16
6930;DHT22;3504;52.616;13.238;2022-11-22T11:39:32;1.55;87.06
6930;DHT22;3504;52.616;13.238;2022-11-22T11:44:35;1.64;86.93
6930;DHT22;3504;52.616;13.238;2022-11-22T11:49:36;1.61;86.80
6930;DHT22;3504;52.616;13.238;2022-11-22T12:10:54;1.77;87.14
6930;DHT22;3504;52.616;13.238;2022-11-22T12:16:26;1.77;87.12
6930;DHT22;3504;52.616;13.238;2022-11-22T12:21:33;1.78;87.14
6930;DHT22;3504;52.616;13.238;2022-11-22T12:26:34;1.74;87.35
6930;DHT22;3504;52.616;13.238;2022-11-22T12:31:48;1.79;87.17
6930;DHT22;3504;52.616;13.238;2022-11-22T12:37:04;1.77;87.58
6930;DHT22;3504;52.616;13.238;2022-11-22T12:42:15;1.84;87.54
6930;DHT22;3504;52.616;13.238;2022-11-22T12:47:26;1.86;87.37
6930;DHT22;3504;52.616;13.238;2022-11-22T12:52:36;1.82;87.51
6930;DHT22;3504;52.616;13.238;2022-11-22T12:58:08;1.86;87.58
6930;DHT22;3504;52.616;13.238;2022-11-22T13:03:21;1.94;87.51
6930;DHT22;3504;52.616;13.238;2022-11-22T13:08:35;1.88;87.31
6930;DHT22;3504;52.616;13.238;2022-11-22T13:13:42;1.94;87.47
6930;DHT22;3504;52.616;13.238;2022-11-22T13:19:04;1.88;87.67
6930;DHT22;3504;52.616;13.238;2022-11-22T13:29:26;1.98;87.55
6930;DHT22;3504;52.616;13.238;2022-11-22T13:34:28;1.96;87.66
6930;DHT22;3504;52.616;13.238;2022-11-22T13:39:29;1.98;87.80
6930;DHT22;3504;52.616;13.238;2022-11-22T13:49:43;2.02;87.73
6930;DHT22;3504;52.616;13.238;2022-11-22T14:10:37;2.09;87.68
6930;DHT22;3504;52.616;13.238;2022-11-22T14:21:46;2.05;87.94
6930;DHT22;3504;52.616;13.238;2022-11-22T14:27:31;1.99;88.24
6930;DHT22;3504;52.616;13.238;2022-11-22T14:32:46;2.03;88.14
6930;DHT22;3504;52.616;13.238;2022-11-22T14:43:35;2.13;87.82
6930;DHT22;3504;52.616;13.238;2022-11-22T14:48:52;2.10;87.89
6930;DHT22;3504;52.616;13.238;2022-11-22T14:53:59;2.06;87.95
6930;DHT22;3504;52.616;13.238;2022-11-22T15:10:22;2.06;87.88
6930;DHT22;3504;52.616;13.238;2022-11-22T15:15:39;2.07;88.27
6930;DHT22;3504;52.616;13.238;2022-11-22T15:20:42;2.07;88.34
6930;DHT22;3504;52.616;13.238;2022-11-22T15:25:44;2.03;88.63
6930;DHT22;3504;52.616;13.238;2022-11-22T15:30:47;2.02;88.65
6930;DHT22;3504;52.616;13.238;2022-11-22T15:41:33;2.02;88.88
6930;DHT22;3504;52.616;13.238;2022-11-22T15:46:38;2.05;88.81
6930;DHT22;3504;52.616;13.238;2022-11-22T15:52:21;2.01;88.84
6930;DHT22;3504;52.616;13.238;2022-11-22T15:57:35;2.02;88.90
6930;DHT22;3504;52.616;13.238;2022-11-22T16:02:42;1.99;88.97
6930;DHT22;3504;52.616;13.238;2022-11-22T16:07:48;1.99;89.12
6930;DHT22;3504;52.616;13.238;2022-11-22T16:12:50;1.98;89.44
6930;DHT22;3504;52.616;13.238;2022-11-22T16:18:05;1.95;89.44
6930;DHT22;3504;52.616;13.238;2022-11-22T16:28:28;1.96;89.42
6930;DHT22;3504;52.616;13.238;2022-11-22T16:33:30;1.98;89.28
6930;DHT22;3504;52.616;13.238;2022-11-22T16:38:31;2.01;89.48
6930;DHT22;3504;52.616;13.238;2022-11-22T16:43:33;2.03;89.30
6930;DHT22;3504;52.616;13.238;2022-11-22T16:48:34;2.03;89.46
6930;DHT22;3504;52.616;13.238;2022-11-22T16:53:44;2.05;89.53
6930;DHT22;3504;52.616;13.238;2022-11-22T16:58:47;2.07;89.36
6930;DHT22;3504;52.616;13.238;2022-11-22T17:03:49;2.06;89.34
6930;DHT22;3504;52.616;13.238;2022-11-22T17:08:53;2.05;89.33
6930;DHT22;3504;52.616;13.238;2022-11-22T17:13:54;2.01;89.23
6930;DHT22;3504;52.616;13.238;2022-11-22T17:18:55;2.05;89.56
6930;DHT22;3504;52.616;13.238;2022-11-22T17:23:58;1.99;89.60
6930;DHT22;3504;52.616;13.238;2022-11-22T17:28:59;2.05;89.61
6930;DHT22;3504;52.616;13.238;2022-11-22T17:33:59;2.02;89.50
6930;DHT22;3504;52.616;13.238;2022-11-22T17:39:04;2.06;89.56
6930;DHT22;3504;52.616;13.238;2022-11-22T17:44:05;2.12;89.25
6930;DHT22;3504;52.616;13.238;2022-11-22T17:49:09;2.12;89.20
6930;DHT22;3504;52.616;13.238;2022-11-22T17:54:10;2.15;89.25
6930;DHT22;3504;52.616;13.238;2022-11-22T17:59:11;2.15;89.28
6930;DHT22;3504;52.616;13.238;2022-11-22T18:04:11;2.16;89.21
6930;DHT22;3504;52.616;13.238;2022-11-22T18:09:13;2.17;89.37
6930;DHT22;3504;52.616;13.238;2022-11-22T18:14:14;2.16;89.05
6930;DHT22;3504;52.616;13.238;2022-11-22T18:19:14;2.15;89.27
6930;DHT22;3504;52.616;13.238;2022-11-22T18:24:15;2.19;89.18
6930;DHT22;3504;52.616;13.238;2022-11-22T18:29:15;2.16;89.15
6930;DHT22;3504;52.616;13.238;2022-11-22T18:34:17;2.15;89.33
6930;DHT22;3504;52.616;13.238;2022-11-22T18:39:18;2.19;89.31
6930;DHT22;3504;52.616;13.238;2022-11-22T18:44:21;2.20;89.04
6930;DHT22;3504;52.616;13.238;2022-11-22T18:49:21;2.19;89.29
6930;DHT22;3504;52.616;13.238;2022-11-22T18:54:22;2.22;89.31
6930;DHT22;3504;52.616;13.238;2022-11-22T18:59:23;2.22;89.26
6930;DHT22;3504;52.616;13.238;2022-11-22T19:04:23;2.20;89.36
6930;DHT22;3504;52.616;13.238;2022-11-22T19:09:24;2.28;89.14
6930;DHT22;3504;52.616;13.238;2022-11-22T19:14:25;2.28;89.08
6930;DHT22;3504;52.616;13.238;2022-11-22T19:19:27;2.23;89.15
6930;DHT22;3504;52.616;13.238;2022-11-22T19:24:31;2.29;89.15
6930;DHT22;3504;52.616;13.238;2022-11-22T19:29:32;2.33;89.10
6930;DHT22;3504;52.616;13.238;2022-11-22T19:34:32;2.29;89.01
6930;DHT22;3504;52.616;13.238;2022-11-22T19:39:33;2.28;88.97
6930;DHT22;3504;52.616;13.238;2022-11-22T19:44:33;2.30;89.26
6930;DHT22;3504;52.616;13.238;2022-11-22T19:49:37;2.29;89.20
6930;DHT22;3504;52.616;13.238;2022-11-22T19:54:37;2.30;89.18
6930;DHT22;3504;52.616;13.238;2022-11-22T19:59:38;2.32;89.25
6930;DHT22;3504;52.616;13.238;2022-11-22T20:04:38;2.29;89.15
6930;DHT22;3504;52.616;13.238;2022-11-22T20:09:39;2.28;89.08
6930;DHT22;3504;52.616;13.238;2022-11-22T20:14:39;2.28;88.97
6930;DHT22;3504;52.616;13.238;2022-11-22T20:19:40;2.25;88.90
6930;DHT22;3504;52.616;13.238;2022-11-22T20:24:40;2.22;89.07
6930;DHT22;3504;52.616;13.238;2022-11-22T20:29:42;2.19;89.11
6930;DHT22;3504;52.616;13.238;2022-11-22T20:34:42;2.12;89.12
6930;DHT22;3504;52.616;13.238;2022-11-22T20:39:43;2.10;89.10
6930;DHT22;3504;52.616;13.238;2022-11-22T20:44:43;2.09;89.28
6930;DHT22;3504;52.616;13.238;2022-11-22T20:49:44;2.09;89.20
6930;DHT22;3504;52.616;13.238;2022-11-22T20:54:44;2.09;89.23
6930;DHT22;3504;52.616;13.238;2022-11-22T20:59:45;2.10;89.17
6930;DHT22;3504;52.616;13.238;2022-11-22T21:04:46;2.09;89.21
6930;DHT22;3504;52.616;13.238;2022-11-22T21:09:46;2.10;89.25
6930;DHT22;3504;52.616;13.238;2022-11-22T21:14:47;2.13;89.27
6930;DHT22;3504;52.616;13.238;2022-11-22T21:19:47;2.12;89.33
6930;DHT22;3504;52.616;13.238;2022-11-22T21:24:48;2.12;89.34
6930;DHT22;3504;52.616;13.238;2022-11-22T21:29:48;2.09;89.31
6930;DHT22;3504;52.616;13.238;2022-11-22T21:34:49;2.09;89.38
6930;DHT22;3504;52.616;13.238;2022-11-22T21:39:49;2.09;89.15
6930;DHT22;3504;52.616;13.238;2022-11-22T21:44:50;2.09;89.00
6930;DHT22;3504;52.616;13.238;2022-11-22T21:49:50;2.10;89.08
6930;DHT22;3504;52.616;13.238;2022-11-22T21:54:51;2.09;88.84
6930;DHT22;3504;52.616;13.238;2022-11-22T21:59:53;2.06;88.75
6930;DHT22;3504;52.616;13.238;2022-11-22T22:04:54;2.05;88.60
6930;DHT22;3504;52.616;13.238;2022-11-22T22:09:54;1.99;88.86
6930;DHT22;3504;52.616;13.238;2022-11-22T22:14:55;1.95;88.80
6930;DHT22;3504;52.616;13.238;2022-11-22T22:19:55;1.95;88.82
6930;DHT22;3504;52.616;13.238;2022-11-22T22:24:55;1.89;89.08
6930;DHT22;3504;52.616;13.238;2022-11-22T22:29:56;1.92;88.92
6930;DHT22;3504;52.616;13.238;2022-11-22T22:34:57;1.88;89.11
6930;DHT22;3504;52.616;13.238;2022-11-22T22:39:58;1.82;89.08
6930;DHT22;3504;52.616;13.238;2022-11-22T22:44:58;1.79;89.31
6930;DHT22;3504;52.616;13.238;2022-11-22T22:49:59;1.78;89.28
6930;DHT22;3504;52.616;13.238;2022-11-22T22:54:59;1.81;89.36
6930;DHT22;3504;52.616;13.238;2022-11-22T23:00:00;1.78;89.31
6930;DHT22;3504;52.616;13.238;2022-11-22T23:05:00;1.77;89.25
6930;DHT22;3504;52.616;13.238;2022-11-22T23:10:01;1.74;89.55
6930;DHT22;3504;52.616;13.238;2022-11-22T23:15:01;1.71;89.64
6930;DHT22;3504;52.616;13.238;2022-11-22T23:20:02;1.71;89.89
6930;DHT22;3504;52.616;13.238;2022-11-22T23:25:05;1.72;89.93
6930;DHT22;3504;52.616;13.238;2022-11-22T23:30:06;1.72;89.63
6930;DHT22;3504;52.616;13.238;2022-11-22T23:35:07;1.77;89.53
6930;DHT22;3504;52.616;13.238;2022-11-22T23:40:08;1.77;89.43
6930;DHT22;3504;52.616;13.238;2022-11-22T23:45:09;1.77;89.38
6930;DHT22;3504;52.616;13.238;2022-11-22T23:50:10;1.74;89.45
6930;DHT22;3504;52.616;13.238;2022-11-22T23:55:10;1.71;89.49
